ADDS METAR Data INFO
IDs: Format: Raw Decoded Include TAF

Data at: 2044 UTC 16 Dec 2017

KIMT 161954Z AUTO 08004KT 10SM OVC033 M07/M12 A2999 RMK AO2 SLP181 T10671122
KIMT 161854Z AUTO 04005KT 10SM OVC034 M07/M13 A2998 RMK AO2 SLP179 T10721128
KIMT 161754Z AUTO 08004KT 10SM SCT110 M08/M13 A2997 RMK AO2 SLP176 T10781133 11078 21150 50015
KIMT 161654Z AUTO 03004KT 10SM BKN035 OVC050 M08/M14 A2998 RMK AO2 SLP178 T10831144
KIMT 161554Z AUTO VRB03KT 10SM FEW034 M09/M14 A2995 RMK AO2 SLP170 T10941144
KIMT 161454Z AUTO 00000KT 10SM OVC034 M13/M15 A2993 RMK AO2 SLP163 T11281150 51023
KIMT 161354Z AUTO 00000KT 10SM BKN038 M15/M17 A2990 RMK AO2 SLP154 T11501172
KIMT 161254Z AUTO 00000KT 10SM OVC039 M14/M17 A2989 RMK AO2 SLP148 T11441167
KIMT 161154Z AUTO 00000KT 10SM BKN042 OVC100 M15/M17 A2986 RMK AO2 SLP138 7//// T11501172 11117 21150 53011
KIMT 161054Z AUTO 33003KT 10SM FEW039 BKN075 M13/M16 A2984 RMK AO2 SLP132 T11281156
KIMT 160954Z AUTO 00000KT 10SM OVC080 M12/M15 A2983 RMK AO2 SLP126 T11171150
KIMT 160854Z AUTO 00000KT 10SM OVC043 M12/M15 A2982 RMK AO2 SLP123 T11221150 53012
KIMT 160754Z AUTO 00000KT 10SM OVC047 M13/M16 A2981 RMK AO2 SLP118 T11281156
KIMT 160654Z AUTO 00000KT 10SM OVC048 M13/M16 A2979 RMK AO2 SLP112 T11331156
KIMT 160554Z AUTO 00000KT 10SM OVC055 M13/M16 A2979 RMK AO2 SLP111 T11331161 11100 21139 410611139 50001
KIMT 160454Z AUTO 00000KT 10SM FEW055 OVC075 M14/M16 A2980 RMK AO2 SLP117 T11391161
KIMT 160354Z AUTO 00000KT 10SM OVC075 M13/M16 A2979 RMK AO2 SLP113 T11281156
KIMT 160339Z AUTO 00000KT 10SM SCT026 OVC075 M13/M16 A2978 RMK AO2 T11281156
KIMT 160315Z AUTO 00000KT 10SM BKN027 OVC080 M13/M16 A2978 RMK AO2 T11281161
KIMT 160254Z AUTO 00000KT 10SM FEW029 BKN080 M13/M16 A2979 RMK AO2 SLPNO T11331161 50003
KIMT 160222Z AUTO 35003KT 10SM SCT028 BKN085 M14/M17 A2978 RMK AO2 T11391167
KIMT 160154Z AUTO 28004KT 10SM OVC029 M11/M15 A2979 RMK AO2 SLPNO T11061150
KIMT 160144Z AUTO 25004KT 10SM OVC030 M10/M15 A2979 RMK AO2 T11001150
KIMT 160054Z AUTO 27004KT 10SM OVC029 M10/M15 A2978 RMK AO2 SLP109 T11001150
KIMT 160049Z AUTO 27004KT 10SM OVC029 M10/M15 A2978 RMK AO2
KIMT 152354Z AUTO 26005KT 10SM OVC032 M10/M14 A2976 RMK AO2 SLP103 60000 T11001144 11061 21100 53013
KIMT 152254Z AUTO 26004KT 10SM SCT019 M09/M14 A2974 RMK AO2 SLP096 T10941139
KIMT 152154Z AUTO 28009KT 10SM FEW029 OVC038 M08/M13 A2973 RMK AO2 SLP091 T10781128
KIMT 152054Z AUTO 30010KT 10SM BKN036 M07/M14 A2972 RMK AO2 SNE14 SLP087 P0000 60000 T10721139 53001
KIMT 152007Z AUTO 28008KT 7SM -SN BKN030 OVC038 M07/M13 A2971 RMK AO2 P0000 T10671133
KIMT 151954Z AUTO 27010KT 5SM -SN BKN028 OVC038 M07/M13 A2971 RMK AO2 SNB45 SLP084 P0000 T10721128
KIMT 151854Z AUTO 31011KT 10SM OVC033 M07/M13 A2972 RMK AO2 SLP085 T10671133
KIMT 151822Z AUTO 29012KT 10SM BKN032 M07/M13 A2972 RMK AO2 T10671128 PWINO FZRANO $
KIMT 151754Z AUTO 30009KT 10SM BKN028 M06/M12 A2972 RMK AO2 SLP085 6//// T10611117 56007 PWINO FZRANO $
KIMT 151654Z AUTO 29009KT 10SM SCT060 M08/M13 A2973 RMK AO2 SLP090 T10781128
KIMT 151645Z AUTO 29008KT 5SM HZ FEW001 FEW060 M08/M13 A2973 RMK AO2 T10831128
KIMT 151638Z AUTO 28009KT 3SM HZ FEW010 SCT060 M08/M13 A2974 RMK AO2 T10831128
KIMT 151628Z AUTO 28005KT 1 3/4SM HZ FEW035 BKN060 M09/M12 A2974 RMK AO2 T10891122
KIMT 151554Z AUTO 28007KT 10SM OVC060 M09/M13 A2974 RMK AO2 SLP094 T10891128
KIMT 151454Z AUTO OVC060 A2974 RMK AO2 SLPNO 6//// 51004 PWINO FZRANO PNO $
KIMT 151354Z AUTO FEW044 OVC065 A2974 RMK AO2 SLPNO PWINO FZRANO PNO $
KIMT 151254Z AUTO 28007KT 7SM BKN060 M11/M14 A2973 RMK AO2 SLP093 T11111139
KIMT 151154Z AUTO 29008KT 10SM SCT049 M11/M14 A2973 RMK AO2 SLP092 60000 T11061139 11083 21106 55005
KIMT 151054Z AUTO 29009KT 10SM CLR M10/M13 A2973 RMK AO2 SNE10 SLP090 P0000 T11001128
KIMT 150954Z AUTO 29010KT 4SM -SN OVC048 M09/M12 A2974 RMK AO2 SLP092 P0000 T10891117
KIMT 150905Z AUTO 28008KT 3SM -SN BR OVC042 M09/M11 A2975 RMK AO2 P0000 T10891111
KIMT 150854Z AUTO 28006KT 2 1/2SM -SN BR OVC040 M09/M11 A2975 RMK AO2 SLP096 P0000 60000 T10891111 56018